AirNav   Pilot Hours Calculator
 
 540 users online  

4KY6 Jennie Stuart Medical Center Heliport
Hopkinsville, Kentucky, USA

GOING TO HOPKINSVILLE?


FAA INFORMATION EFFECTIVE 02 JANUARY 2020

Location

FAA Identifier: 4KY6
Lat/Long: 36-51-38.9100N 087-29-51.6500W
36-51.648500N 087-29.860833W
36.8608083,-87.4976806
(estimated)
Elevation: 550 ft. / 168 m (estimated)
Variation: 01W ()
From city: 1 mile S of HOPKINSVILLE, KY
Time zone: UTC -6 (UTC -5 during Daylight Saving Time)
Zip code: 42240

Heliport Operations

Heliport use: Private use, MEDICAL USE.
Activation date: 07/2000
Control tower: no
ARTCC: MEMPHIS CENTER
FSS: LOUISVILLE FLIGHT SERVICE STATION
Attendance: UNATNDD
Wind indicator: lighted, ROOFTOP WINDSOCK.
Segmented circle: no
Lights: SS-SR

Heliport Communications

WX AWOS-3 at HVC (2.1 nm E): 132.575 (270-886-6311)
WX ASOS at CKV (15 nm S): 134.575 (931-431-3045)
WX AWOS-3 at EOD (18 nm S): PHONE 270-956-3100

Nearby radio navigation aids

VOR radial/distance  VOR name  Freq  Var
CKVr345/14.9CLARKSVILLE VOR/DME110.6001W
CCTr201/33.2CENTRAL CITY VORTAC109.8001W

 
NDB name  Hdg/Dist  Freq  Var  ID
AIRBE333/8.427301WFK ..-. -.-

Heliport Services

Runway Information

Helipad H1

Dimensions: 40 x 40 ft. / 12 x 12 m
Surface: mats
Runway edge lights: PERI
Latitude: 36-51.648500N
Longitude: 087-29.860833W
Elevation: 550.0 ft.
Traffic pattern: leftleft

Heliport Ownership and Management from official FAA records

Ownership: Privately-owned
Owner: JENNIE STUART MEDICAL CENTER
320 WEST 18TH STREET
HOPKINSVILLE, KY 42240
Phone 270-887-0100
Manager: KENNY OUTLAND
320 WEST 18TH STREET
HOPKINSVILLE, KY 42240
Phone 270-887-0158
ERIC LEE

Additional Remarks

60 FT TREES 160 FT SOUTH, 30 FT POWER LINES 150 FT FROM HELIPAD IN ALL QUADRANTS.
FOR CD CTC CAMPBELL APCH AT 270-798-6441.

Instrument Procedures

There are no published instrument procedures at 4KY6.

Some nearby airports with instrument procedures:

KHVC - Hopkinsville-Christian County Airport (2 nm E)
KHOP - Campbell Army Airfield (Fort Campbell) (11 nm S)
KCKV - Outlaw Field Airport (15 nm S)
KEOD - Sabre Army Airfield (Fort Campbell) (18 nm S)
2M0 - Princeton-Caldwell County Airport (23 nm NW)
 
Loc | Ops | Rwys | IFR | FBO | Links
Com | Nav | Svcs | Stats | Notes
Area around 4KY6 (Jennie Stuart Medical Center Heliport)
 
Road maps at: MapQuest Bing Google
 
Aerial photo
No photo
 
Sectional chart

 
Airport distance calculator
Flying to Jennie Stuart Medical Center Heliport? Find the distance to fly.

From to 4KY6

Sunrise and sunset
Times for 23-Jan-2020
 Local
(UTC-6)
 Zulu
(UTC)
Morning civil twilight06:3212:32
Sunrise07:0013:00
Sunset17:0423:04
Evening civil twilight17:3223:32

Current date and time
Zulu (UTC)  23-Jan-2020 09:37:41
Local (UTC-6)  23-Jan-2020 03:37:41
 
METAR
KHOP 
12nm S 
230856Z AUTO 13004KT 10SM SCT095 02/M05 A3017 RMK AO2 SLP223 T00171055 56004
KCKV 
15nm S 
230852Z AUTO 13003KT 10SM OVC110 01/M03 A3018 RMK AO2 SLP221 T00111033 56006
KEOD 
18nm S 
230858Z AUTO 00000KT 10SM BKN100 01/M03 A3017 RMK AO2 SLP224 T00061031 55004 $
TAF
KHOP 
12nm S 
230800Z 2308/2414 VRB06KT 9999 OVC100 QNH3015INS BECMG 2314/2315 15009KT 8000 -RA OVC040 620509 QNH3013INS BECMG 2317/2318 15012G18KT 8000 -RA OVC025 620509 QNH3000INS BECMG 2323/2324 13009KT 4800 RA OVC008 620509 QNH2993INS TX06/2403Z TN02/2308Z
KCKV 
15nm S 
230520Z 2306/2406 VRB03KT P6SM OVC150 FM231800 16009G14KT P6SM VCSH OVC060 FM232000 15008KT 6SM -SHRA OVC028 FM240200 14009G14KT 4SM SHRA OVC007
NOTAMs
Click for the latest NOTAMs
NOTAMs are issued by the DoD/FAA and will open in a separate window not controlled by AirNav.

 

 
 

Would you like to see your business listed on this page?

 If your business provides an interesting product or service to pilots, flight crews, aircraft, or users of the Jennie Stuart Medical Center Heliport, you should consider listing it here.  To start the listing process, click on the button below
 
Add a business
 

Other Pages about Jennie Stuart Medical Center Heliport

Update a link
 
Copyright © AirNav, LLC. All rights reserved. Privacy Policy  Contact